sensor_id;sensor_type;location;lat;lon;timestamp;pressure;altitude;pressure_sealevel;temperature;humidity
39309;BME280;26019;47.510;19.122;2023-02-19T00:09:33;100257.25;;;11.35;75.14
39309;BME280;26019;47.510;19.122;2023-02-19T00:19:35;100240.09;;;11.28;74.94
39309;BME280;26019;47.510;19.122;2023-02-19T00:29:37;100251.41;;;11.16;76.76
39309;BME280;26019;47.510;19.122;2023-02-19T00:39:39;100240.28;;;11.05;77.44
39309;BME280;26019;47.510;19.122;2023-02-19T00:49:41;100245.50;;;11.02;76.21
39309;BME280;26019;47.510;19.122;2023-02-19T00:59:42;100267.03;;;11.04;75.74
39309;BME280;26019;47.510;19.122;2023-02-19T01:09:44;100254.22;;;10.92;76.82
39309;BME280;26019;47.510;19.122;2023-02-19T01:19:46;100233.63;;;10.79;78.21
39309;BME280;26019;47.510;19.122;2023-02-19T01:29:49;100227.31;;;11.11;77.70
39309;BME280;26019;47.510;19.122;2023-02-19T01:39:51;100236.72;;;11.18;77.55
39309;BME280;26019;47.510;19.122;2023-02-19T01:49:55;100250.78;;;10.93;79.74
39309;BME280;26019;47.510;19.122;2023-02-19T02:00:09;100256.00;;;10.83;80.81
39309;BME280;26019;47.510;19.122;2023-02-19T02:10:12;100219.88;;;10.77;81.51
39309;BME280;26019;47.510;19.122;2023-02-19T02:20:32;100226.75;;;10.78;82.73
39309;BME280;26019;47.510;19.122;2023-02-19T02:30:50;100213.13;;;10.57;86.11
39309;BME280;26019;47.510;19.122;2023-02-19T02:40:54;100208.75;;;10.66;85.54
39309;BME280;26019;47.510;19.122;2023-02-19T02:51:15;100237.97;;;10.74;84.71
39309;BME280;26019;47.510;19.122;2023-02-19T03:12:18;100233.75;;;10.60;87.21
39309;BME280;26019;47.510;19.122;2023-02-19T03:22:41;100231.97;;;10.69;88.31
39309;BME280;26019;47.510;19.122;2023-02-19T03:32:57;100244.94;;;10.67;88.84
39309;BME280;26019;47.510;19.122;2023-02-19T03:43:03;100245.78;;;10.69;88.79
39309;BME280;26019;47.510;19.122;2023-02-19T04:04:00;100243.31;;;10.48;91.16
39309;BME280;26019;47.510;19.122;2023-02-19T04:24:58;100225.44;;;10.12;93.60
39309;BME280;26019;47.510;19.122;2023-02-19T04:35:04;100241.84;;;10.05;95.21
39309;BME280;26019;47.510;19.122;2023-02-19T04:45:07;100219.47;;;9.97;94.54
39309;BME280;26019;47.510;19.122;2023-02-19T04:55:09;100210.94;;;9.89;95.32
39309;BME280;26019;47.510;19.122;2023-02-19T05:05:11;100216.00;;;10.05;93.76
39309;BME280;26019;47.510;19.122;2023-02-19T05:15:13;100230.56;;;10.16;92.25
39309;BME280;26019;47.510;19.122;2023-02-19T05:25:20;100236.63;;;10.12;92.56
39309;BME280;26019;47.510;19.122;2023-02-19T05:35:23;100234.88;;;10.18;91.67
39309;BME280;26019;47.510;19.122;2023-02-19T05:45:26;100204.00;;;9.97;94.75
39309;BME280;26019;47.510;19.122;2023-02-19T05:55:33;100234.09;;;10.01;99.82
39309;BME280;26019;47.510;19.122;2023-02-19T06:05:36;100241.00;;;9.99;100.00
39309;BME280;26019;47.510;19.122;2023-02-19T06:15:42;100244.50;;;9.86;100.00
39309;BME280;26019;47.510;19.122;2023-02-19T06:25:45;100230.88;;;9.56;100.00
39309;BME280;26019;47.510;19.122;2023-02-19T06:35:53;100217.19;;;9.24;100.00
39309;BME280;26019;47.510;19.122;2023-02-19T06:45:59;100199.19;;;8.96;100.00
39309;BME280;26019;47.510;19.122;2023-02-19T06:56:04;100211.22;;;8.87;100.00
39309;BME280;26019;47.510;19.122;2023-02-19T07:06:07;100223.25;;;8.88;100.00
39309;BME280;26019;47.510;19.122;2023-02-19T07:16:09;100220.66;;;8.75;100.00
39309;BME280;26019;47.510;19.122;2023-02-19T07:26:14;100230.09;;;8.95;100.00
39309;BME280;26019;47.510;19.122;2023-02-19T07:36:19;100219.81;;;8.72;100.00
39309;BME280;26019;47.510;19.122;2023-02-19T07:46:27;100200.03;;;8.63;100.00
39309;BME280;26019;47.510;19.122;2023-02-19T07:56:32;100223.25;;;8.92;100.00
39309;BME280;26019;47.510;19.122;2023-02-19T08:06:34;100233.53;;;9.16;100.00
39309;BME280;26019;47.510;19.122;2023-02-19T08:16:36;100248.97;;;9.20;100.00
39309;BME280;26019;47.510;19.122;2023-02-19T08:26:50;100248.13;;;9.04;100.00
39309;BME280;26019;47.510;19.122;2023-02-19T08:36:52;100268.69;;;8.45;100.00
39309;BME280;26019;47.510;19.122;2023-02-19T08:46:55;100231.81;;;8.85;100.00
39309;BME280;26019;47.510;19.122;2023-02-19T08:56:57;100225.84;;;8.91;100.00
39309;BME280;26019;47.510;19.122;2023-02-19T09:07:06;100236.06;;;9.31;100.00
39309;BME280;26019;47.510;19.122;2023-02-19T09:17:12;100230.03;;;9.41;100.00
39309;BME280;26019;47.510;19.122;2023-02-19T09:27:19;100218.88;;;9.33;100.00
39309;BME280;26019;47.510;19.122;2023-02-19T09:37:27;100217.94;;;9.64;100.00
39309;BME280;26019;47.510;19.122;2023-02-19T09:47:30;100203.09;;;10.08;100.00
39309;BME280;26019;47.510;19.122;2023-02-19T09:57:35;100188.31;;;11.31;100.00
39309;BME280;26019;47.510;19.122;2023-02-19T10:07:41;100191.97;;;11.10;100.00
39309;BME280;26019;47.510;19.122;2023-02-19T10:17:48;100158.56;;;13.28;100.00
39309;BME280;26019;47.510;19.122;2023-02-19T10:27:51;100152.88;;;13.09;100.00
39309;BME280;26019;47.510;19.122;2023-02-19T10:38:02;100122.63;;;13.08;100.00
39309;BME280;26019;47.510;19.122;2023-02-19T10:48:21;100080.34;;;13.47;100.00
39309;BME280;26019;47.510;19.122;2023-02-19T10:58:25;100087.16;;;14.61;96.93
39309;BME280;26019;47.510;19.122;2023-02-19T11:08:52;100062.03;;;16.10;69.40
39309;BME280;26019;47.510;19.122;2023-02-19T11:18:55;100042.78;;;16.39;62.80
39309;BME280;26019;47.510;19.122;2023-02-19T11:29:02;100016.78;;;16.62;58.55
39309;BME280;26019;47.510;19.122;2023-02-19T11:39:23;100023.31;;;16.50;58.02
39309;BME280;26019;47.510;19.122;2023-02-19T12:52:24;100003.44;;;17.63;48.87
39309;BME280;26019;47.510;19.122;2023-02-19T13:02:44;100018.16;;;12.99;94.79
39309;BME280;26019;47.510;19.122;2023-02-19T13:12:49;100004.88;;;12.73;90.85
39309;BME280;26019;47.510;19.122;2023-02-19T13:23:07;100014.91;;;19.23;50.84
39309;BME280;26019;47.510;19.122;2023-02-19T13:43:44;100023.81;;;12.78;100.00
39309;BME280;26019;47.510;19.122;2023-02-19T13:53:59;100036.66;;;10.49;100.00
39309;BME280;26019;47.510;19.122;2023-02-19T14:04:20;100056.72;;;10.16;100.00
39309;BME280;26019;47.510;19.122;2023-02-19T14:14:43;100085.72;;;10.52;100.00
39309;BME280;26019;47.510;19.122;2023-02-19T14:24:47;100093.13;;;10.86;100.00
39309;BME280;26019;47.510;19.122;2023-02-19T14:34:51;100134.41;;;11.66;100.00
39309;BME280;26019;47.510;19.122;2023-02-19T14:44:58;100134.00;;;13.87;79.01
39309;BME280;26019;47.510;19.122;2023-02-19T14:55:16;100155.00;;;13.34;81.96
39309;BME280;26019;47.510;19.122;2023-02-19T15:05:30;100148.66;;;11.97;93.29
39309;BME280;26019;47.510;19.122;2023-02-19T15:15:36;100141.41;;;10.81;100.00
39309;BME280;26019;47.510;19.122;2023-02-19T15:25:43;100151.78;;;10.76;100.00
39309;BME280;26019;47.510;19.122;2023-02-19T15:35:59;100131.44;;;10.35;100.00
39309;BME280;26019;47.510;19.122;2023-02-19T15:46:17;100128.91;;;10.28;100.00
39309;BME280;26019;47.510;19.122;2023-02-19T15:56:39;100163.41;;;10.20;100.00
39309;BME280;26019;47.510;19.122;2023-02-19T16:06:57;100191.03;;;10.10;100.00
39309;BME280;26019;47.510;19.122;2023-02-19T16:27:23;100199.75;;;9.93;100.00
39309;BME280;26019;47.510;19.122;2023-02-19T16:47:37;100219.81;;;8.69;100.00
39309;BME280;26019;47.510;19.122;2023-02-19T16:57:48;100207.78;;;8.57;100.00
39309;BME280;26019;47.510;19.122;2023-02-19T17:07:53;100244.69;;;8.68;100.00
39309;BME280;26019;47.510;19.122;2023-02-19T17:17:56;100256.69;;;8.47;100.00
39309;BME280;26019;47.510;19.122;2023-02-19T17:28:00;100251.53;;;8.44;100.00
39309;BME280;26019;47.510;19.122;2023-02-19T17:38:03;100282.47;;;8.50;100.00
39309;BME280;26019;47.510;19.122;2023-02-19T17:48:13;100309.88;;;8.42;100.00
39309;BME280;26019;47.510;19.122;2023-02-19T17:58:19;100321.00;;;8.30;100.00
39309;BME280;26019;47.510;19.122;2023-02-19T18:08:22;100333.88;;;8.22;100.00
39309;BME280;26019;47.510;19.122;2023-02-19T18:18:27;100353.63;;;8.36;100.00
39309;BME280;26019;47.510;19.122;2023-02-19T18:28:33;100374.22;;;8.31;100.00
39309;BME280;26019;47.510;19.122;2023-02-19T18:38:38;100412.81;;;8.20;100.00
39309;BME280;26019;47.510;19.122;2023-02-19T18:48:43;100429.03;;;8.07;100.00
39309;BME280;26019;47.510;19.122;2023-02-19T18:58:46;100438.34;;;7.91;100.00
39309;BME280;26019;47.510;19.122;2023-02-19T19:08:52;100440.91;;;7.88;100.00
39309;BME280;26019;47.510;19.122;2023-02-19T19:19:05;100411.59;;;7.64;100.00
39309;BME280;26019;47.510;19.122;2023-02-19T19:29:10;100394.44;;;7.63;100.00
39309;BME280;26019;47.510;19.122;2023-02-19T19:39:15;100429.56;;;7.62;100.00
39309;BME280;26019;47.510;19.122;2023-02-19T19:49:22;100433.78;;;7.53;100.00
39309;BME280;26019;47.510;19.122;2023-02-19T19:59:26;100492.06;;;7.52;100.00
39309;BME280;26019;47.510;19.122;2023-02-19T20:09:33;100533.16;;;7.46;100.00
39309;BME280;26019;47.510;19.122;2023-02-19T20:19:36;100560.56;;;7.42;100.00
39309;BME280;26019;47.510;19.122;2023-02-19T20:29:40;100578.56;;;7.42;100.00
39309;BME280;26019;47.510;19.122;2023-02-19T20:39:45;100598.91;;;7.22;100.00
39309;BME280;26019;47.510;19.122;2023-02-19T20:49:49;100597.81;;;7.05;100.00
39309;BME280;26019;47.510;19.122;2023-02-19T20:59:54;100624.00;;;6.77;98.81
39309;BME280;26019;47.510;19.122;2023-02-19T21:10:03;100619.19;;;6.42;97.77
39309;BME280;26019;47.510;19.122;2023-02-19T21:20:07;100624.78;;;6.18;93.98
39309;BME280;26019;47.510;19.122;2023-02-19T21:30:11;100590.63;;;5.73;93.48
39309;BME280;26019;47.510;19.122;2023-02-19T21:40:15;100609.22;;;5.64;86.92
39309;BME280;26019;47.510;19.122;2023-02-19T21:50:21;100592.69;;;5.46;77.74
39309;BME280;26019;47.510;19.122;2023-02-19T22:00:25;100616.09;;;5.20;73.68
39309;BME280;26019;47.510;19.122;2023-02-19T22:10:28;100641.56;;;5.14;69.94
39309;BME280;26019;47.510;19.122;2023-02-19T22:20:30;100672.09;;;5.03;69.52
39309;BME280;26019;47.510;19.122;2023-02-19T22:30:32;100705.75;;;4.82;71.15
39309;BME280;26019;47.510;19.122;2023-02-19T22:40:34;100712.28;;;4.69;68.57
39309;BME280;26019;47.510;19.122;2023-02-19T22:50:41;100724.91;;;4.63;66.05
39309;BME280;26019;47.510;19.122;2023-02-19T23:00:43;100757.09;;;4.53;64.49
39309;BME280;26019;47.510;19.122;2023-02-19T23:10:44;100785.09;;;4.47;66.18
39309;BME280;26019;47.510;19.122;2023-02-19T23:20:47;100811.44;;;4.43;64.59
39309;BME280;26019;47.510;19.122;2023-02-19T23:31:05;100840.81;;;4.25;63.89
39309;BME280;26019;47.510;19.122;2023-02-19T23:41:16;100845.84;;;4.22;63.55
39309;BME280;26019;47.510;19.122;2023-02-19T23:51:18;100863.38;;;4.10;64.58
